Time;durP1;ratioP1;P1;durP2;ratioP2;P2;SDS_P1;SDS_P2;PMS_P1;PMS_P2;Temp;Humidity;BMP_temperature;BMP_pressure;BME280_temperature;BME280_humidity;BME280_pressure;Samples;Min_cycle;Max_cycle;Signal;HPM_P1;HPM_P2
2023/02/28 00:00:56;;;;;;;7.37;5.17;;;3.80;99.90;;;;;;5043064;28;20235;-53
2023/02/28 00:03:23;;;;;;;7.23;4.57;;;3.70;99.90;;;;;;5038457;28;20207;-50
2023/02/28 00:05:49;;;;;;;10.23;3.90;;;3.70;99.90;;;;;;5052440;28;20725;-53
2023/02/28 00:08:16;;;;;;;7.00;4.47;;;3.70;99.90;;;;;;5046344;28;20209;-50
2023/02/28 00:10:44;;;;;;;5.43;3.37;;;3.70;99.90;;;;;;5037711;28;20222;-51
2023/02/28 00:13:35;;;;;;;6.93;3.33;;;3.70;99.90;;;;;;5039540;28;20215;-53
2023/02/28 00:16:04;;;;;;;8.07;3.70;;;3.70;99.90;;;;;;5048477;28;20305;-54
2023/02/28 00:18:30;;;;;;;6.97;4.43;;;3.70;99.90;;;;;;5032933;28;20203;-49
2023/02/28 00:20:57;;;;;;;5.40;3.37;;;3.70;99.90;;;;;;5046063;28;20721;-51
2023/02/28 00:23:24;;;;;;;5.87;3.40;;;3.70;99.90;;;;;;5041015;28;20199;-53
2023/02/28 00:25:51;;;;;;;8.87;3.90;;;3.70;99.90;;;;;;5033874;28;20211;-53
2023/02/28 00:28:19;;;;;;;6.33;3.60;;;3.60;99.90;;;;;;5046733;28;20245;-52
2023/02/28 00:30:47;;;;;;;4.30;3.10;;;3.60;99.90;;;;;;5039766;28;20223;-55
2023/02/28 00:33:14;;;;;;;3.53;2.87;;;3.50;99.90;;;;;;5042933;28;20202;-52
2023/02/28 00:35:40;;;;;;;5.27;2.77;;;3.50;99.90;;;;;;5041143;28;20210;-52
2023/02/28 00:38:09;;;;;;;6.73;3.10;;;3.40;99.90;;;;;;5049462;28;20199;-56
2023/02/28 00:40:36;;;;;;;4.33;2.90;;;3.40;99.90;;;;;;5027862;28;20239;-53
2023/02/28 00:43:03;;;;;;;4.33;2.90;;;3.40;99.90;;;;;;5055348;28;20651;-58
2023/02/28 00:45:31;;;;;;;5.77;2.73;;;3.30;99.90;;;;;;5043707;28;20241;-57
2023/02/28 00:47:59;;;;;;;3.97;2.77;;;3.30;99.90;;;;;;5041639;28;20207;-56
2023/02/28 00:50:26;;;;;;;2.90;2.57;;;3.20;99.90;;;;;;5040130;28;20277;-49
2023/02/28 00:52:52;;;;;;;4.00;2.90;;;3.20;99.90;;;;;;5041740;28;20859;-53
2023/02/28 00:55:20;;;;;;;4.43;2.63;;;3.20;99.90;;;;;;5035367;28;20207;-52
2023/02/28 00:57:48;;;;;;;5.83;3.33;;;3.20;99.90;;;;;;5046257;28;20217;-56
2023/02/28 01:00:16;;;;;;;4.70;2.70;;;3.20;99.90;;;;;;5041201;28;20226;-52
2023/02/28 01:02:43;;;;;;;3.80;2.90;;;3.20;99.90;;;;;;5040122;28;20277;-50
2023/02/28 01:05:11;;;;;;;6.10;2.87;;;3.20;99.90;;;;;;5045833;28;20221;-53
2023/02/28 01:07:39;;;;;;;5.70;3.00;;;3.20;99.90;;;;;;5038322;28;20249;-55
2023/02/28 01:10:06;;;;;;;9.57;2.90;;;3.20;99.90;;;;;;5043705;28;20650;-54
2023/02/28 01:12:33;;;;;;;6.07;3.33;;;3.20;99.90;;;;;;5035317;28;20186;-50
2023/02/28 01:15:00;;;;;;;5.93;3.00;;;3.20;99.90;;;;;;5052324;28;20743;-57
2023/02/28 01:17:27;;;;;;;4.67;3.47;;;3.10;99.90;;;;;;5042370;28;20207;-52
2023/02/28 01:19:54;;;;;;;5.07;2.83;;;3.20;99.90;;;;;;5049141;28;20221;-49
2023/02/28 01:22:23;;;;;;;5.33;3.03;;;3.10;99.90;;;;;;5058954;28;20291;-51
2023/02/28 01:24:50;;;;;;;6.57;3.17;;;3.10;99.90;;;;;;5060115;28;20237;-55
2023/02/28 01:27:17;;;;;;;7.60;3.00;;;3.10;99.90;;;;;;5048286;28;20211;-52
2023/02/28 01:29:43;;;;;;;4.40;2.87;;;3.10;99.90;;;;;;5039729;28;20939;-54
2023/02/28 01:32:11;;;;;;;4.07;3.33;;;3.10;99.90;;;;;;5044114;28;20233;-50
2023/02/28 01:34:38;;;;;;;7.33;3.30;;;3.10;99.90;;;;;;5041404;28;20754;-51
2023/02/28 01:37:06;;;;;;;4.27;2.57;;;3.00;99.90;;;;;;5044643;28;20690;-50
2023/02/28 01:39:34;;;;;;;3.43;2.90;;;3.00;99.90;;;;;;5039609;28;20203;-51
2023/02/28 01:42:01;;;;;;;5.37;2.97;;;3.00;99.90;;;;;;5043299;28;20712;-52
2023/02/28 01:44:58;;;;;;;6.37;2.83;;;3.00;99.90;;;;;;5029452;28;20293;-54
2023/02/28 01:47:44;;;;;;;5.40;3.13;;;2.90;99.90;;;;;;5037088;28;20956;-57
2023/02/28 01:50:17;;;;;;;4.47;2.63;;;2.80;99.90;;;;;;5042392;28;20609;-50
2023/02/28 01:52:46;;;;;;;4.80;3.20;;;2.80;99.90;;;;;;5053250;28;20202;-54
2023/02/28 01:55:17;;;;;;;3.90;2.87;;;2.80;99.90;;;;;;5062052;28;20571;-54
2023/02/28 01:57:50;;;;;;;3.90;3.03;;;2.80;99.90;;;;;;5060801;28;20295;-58
2023/02/28 02:00:26;;;;;;;4.30;2.50;;;2.80;99.90;;;;;;5034255;28;20341;-55
2023/02/28 02:02:56;;;;;;;4.87;2.50;;;2.80;99.90;;;;;;5042014;28;20210;-57
2023/02/28 02:05:24;;;;;;;4.10;3.20;;;2.80;99.90;;;;;;5047613;28;20318;-55
2023/02/28 02:07:54;;;;;;;3.93;2.90;;;2.80;99.90;;;;;;5042516;28;21112;-53
2023/02/28 02:10:29;;;;;;;8.90;2.90;;;2.80;99.90;;;;;;5041006;28;20207;-52
2023/02/28 02:13:13;;;;;;;4.63;3.00;;;2.80;99.90;;;;;;5042816;28;20191;-56
2023/02/28 02:15:45;;;;;;;5.37;2.47;;;2.80;99.90;;;;;;5032659;28;20685;-56
2023/02/28 02:18:24;;;;;;;3.47;2.70;;;2.80;99.90;;;;;;5042609;28;20202;-51
2023/02/28 02:21:17;;;;;;;4.13;3.03;;;2.80;99.90;;;;;;5041922;28;20699;-52
2023/02/28 02:24:12;;;;;;;3.47;2.73;;;2.80;99.90;;;;;;5047395;28;20695;-52
2023/02/28 02:26:52;;;;;;;5.00;3.20;;;2.70;99.90;;;;;;5045278;28;20680;-53
2023/02/28 02:29:52;;;;;;;5.70;2.77;;;2.70;99.90;;;;;;5047457;28;20298;-58
2023/02/28 02:32:55;;;;;;;5.03;2.90;;;2.70;99.90;;;;;;5061134;28;20227;-57
2023/02/28 02:35:28;;;;;;;10.77;3.30;;;2.70;99.90;;;;;;5044087;28;20215;-57
2023/02/28 02:38:05;;;;;;;4.33;3.40;;;2.60;99.90;;;;;;5039188;28;20332;-58
2023/02/28 02:40:38;;;;;;;7.30;3.93;;;2.60;99.90;;;;;;5045762;28;20259;-58
2023/02/28 02:43:12;;;;;;;6.07;3.50;;;2.60;99.90;;;;;;5042204;28;20949;-53
2023/02/28 02:45:45;;;;;;;3.70;3.23;;;2.60;99.90;;;;;;5041930;28;20203;-50
2023/02/28 02:48:16;;;;;;;6.03;3.77;;;2.60;99.90;;;;;;5042351;28;20202;-54
2023/02/28 02:50:47;;;;;;;5.23;2.97;;;2.60;99.90;;;;;;5051819;28;20214;-53
2023/02/28 02:53:15;;;;;;;3.93;3.50;;;2.60;99.90;;;;;;5037502;28;20206;-58
2023/02/28 02:55:52;;;;;;;5.13;3.30;;;2.60;99.90;;;;;;5044647;28;20379;-54
2023/02/28 02:58:22;;;;;;;5.63;3.30;;;2.60;99.90;;;;;;5055167;28;20211;-54
2023/02/28 03:00:53;;;;;;;7.07;3.60;;;2.60;99.90;;;;;;5047957;28;20212;-54
2023/02/28 03:03:28;;;;;;;4.57;3.27;;;2.50;99.90;;;;;;5046638;28;20681;-54
2023/02/28 03:05:57;;;;;;;7.53;3.63;;;2.50;99.90;;;;;;5046461;28;20195;-52
2023/02/28 03:08:25;;;;;;;5.17;3.40;;;2.50;99.90;;;;;;5044585;28;20203;-50
2023/02/28 03:10:59;;;;;;;5.10;3.37;;;2.50;99.90;;;;;;5045075;28;20230;-55
2023/02/28 03:13:53;;;;;;;6.50;3.23;;;2.50;99.90;;;;;;5045230;28;20210;-51
2023/02/28 03:16:37;;;;;;;6.57;3.57;;;2.50;99.90;;;;;;5034512;28;20202;-48
2023/02/28 03:19:20;;;;;;;3.60;2.60;;;2.50;99.90;;;;;;5041222;28;20202;-52
2023/02/28 03:22:02;;;;;;;5.73;2.70;;;2.40;99.90;;;;;;5047166;28;20221;-53
2023/02/28 03:24:57;;;;;;;6.27;3.13;;;2.40;99.90;;;;;;5039223;28;20296;-53
2023/02/28 03:27:27;;;;;;;6.67;3.17;;;2.40;99.90;;;;;;5042709;28;20235;-48
2023/02/28 03:30:01;;;;;;;3.77;3.23;;;2.30;99.90;;;;;;5051502;28;20194;-50
2023/02/28 03:32:34;;;;;;;5.77;3.70;;;2.30;99.90;;;;;;5040159;28;20755;-50
2023/02/28 03:35:07;;;;;;;6.57;3.27;;;2.20;99.90;;;;;;5045698;28;20339;-51
2023/02/28 03:38:00;;;;;;;4.97;3.47;;;2.20;99.90;;;;;;5043244;28;20210;-54
2023/02/28 03:40:32;;;;;;;7.57;3.20;;;2.20;99.90;;;;;;5049701;28;20631;-51
2023/02/28 03:43:03;;;;;;;5.17;3.17;;;2.20;99.90;;;;;;5043324;28;20955;-51
2023/02/28 03:45:33;;;;;;;5.40;3.10;;;2.10;99.90;;;;;;5043289;28;20219;-46
2023/02/28 03:48:03;;;;;;;5.20;2.90;;;2.10;99.90;;;;;;5044048;28;20207;-54
2023/02/28 03:50:36;;;;;;;5.03;3.00;;;2.00;99.90;;;;;;5038912;28;20314;-53
2023/02/28 03:53:10;;;;;;;3.40;3.10;;;2.00;99.90;;;;;;5053753;28;20219;-56
2023/02/28 03:55:41;;;;;;;6.30;2.67;;;2.00;99.90;;;;;;5038250;28;20282;-51
2023/02/28 03:58:16;;;;;;;2.70;2.50;;;2.00;99.90;;;;;;5052932;28;20199;-52
2023/02/28 04:00:50;;;;;;;4.83;2.90;;;2.00;99.90;;;;;;5038887;28;20340;-56
2023/02/28 04:03:17;;;;;;;4.03;2.83;;;1.90;99.90;;;;;;5042560;28;20231;-48
2023/02/28 04:05:52;;;;;;;8.83;2.63;;;1.80;99.90;;;;;;5033582;28;20202;-52
2023/02/28 04:08:38;;;;;;;3.80;2.90;;;1.70;99.90;;;;;;5041835;28;20816;-55
2023/02/28 04:11:17;;;;;;;3.47;2.73;;;1.70;99.90;;;;;;5045324;28;20223;-55
2023/02/28 04:13:44;;;;;;;4.30;3.00;;;1.70;99.90;;;;;;5040373;28;20940;-54
2023/02/28 04:16:12;;;;;;;5.97;3.07;;;1.60;99.90;;;;;;5043467;28;20230;-51
2023/02/28 04:18:38;;;;;;;7.00;2.90;;;1.50;99.90;;;;;;5040993;28;20258;-51
2023/02/28 04:21:26;;;;;;;4.43;2.80;;;1.50;99.90;;;;;;5028725;28;20833;-46
2023/02/28 04:24:20;;;;;;;3.93;3.00;;;1.40;99.90;;;;;;5055181;28;20289;-50
2023/02/28 04:26:48;;;;;;;4.27;3.10;;;1.30;99.90;;;;;;5043524;28;20231;-51
2023/02/28 04:29:20;;;;;;;6.00;3.10;;;1.30;99.90;;;;;;5041765;28;20657;-48
2023/02/28 04:31:47;;;;;;;4.57;2.87;;;1.20;99.90;;;;;;5035588;28;20818;-53
2023/02/28 04:34:13;;;;;;;3.30;2.67;;;1.10;99.90;;;;;;5045383;28;20195;-50
2023/02/28 04:36:41;;;;;;;8.77;4.07;;;1.00;99.90;;;;;;5034619;28;20226;-50
2023/02/28 04:39:09;;;;;;;4.23;2.90;;;1.00;99.90;;;;;;5046760;28;20580;-50
2023/02/28 04:41:37;;;;;;;5.00;2.73;;;1.00;99.90;;;;;;5041591;28;20227;-55
2023/02/28 04:44:05;;;;;;;4.93;2.30;;;1.00;99.90;;;;;;5038982;28;20234;-56
2023/02/28 04:46:31;;;;;;;4.70;3.03;;;0.90;99.90;;;;;;5044891;28;20202;-55
2023/02/28 04:48:59;;;;;;;5.40;2.83;;;0.90;99.90;;;;;;5048060;28;20210;-56
2023/02/28 04:51:27;;;;;;;5.57;3.13;;;0.80;99.90;;;;;;5039530;28;20207;-55
2023/02/28 04:53:54;;;;;;;3.73;2.43;;;0.70;99.90;;;;;;5033279;28;20203;-57
2023/02/28 04:56:21;;;;;;;3.93;2.73;;;0.60;99.90;;;;;;5050165;28;20257;-54
2023/02/28 04:58:50;;;;;;;8.40;3.23;;;0.60;99.90;;;;;;5042762;28;20212;-54
2023/02/28 05:01:20;;;;;;;4.20;2.83;;;0.50;99.90;;;;;;5040806;28;20575;-50
2023/02/28 05:03:47;;;;;;;3.47;2.53;;;0.50;99.90;;;;;;5045187;28;20307;-56
2023/02/28 05:06:15;;;;;;;4.77;2.70;;;0.40;99.90;;;;;;5050959;28;20277;-50
2023/02/28 05:08:42;;;;;;;4.70;2.73;;;0.40;99.90;;;;;;5038808;28;20253;-52
2023/02/28 05:11:16;;;;;;;5.20;2.70;;;0.40;99.90;;;;;;5045081;28;20222;-48
2023/02/28 05:13:43;;;;;;;7.47;2.90;;;0.40;99.90;;;;;;5055824;28;20447;-56
2023/02/28 05:16:11;;;;;;;3.70;2.40;;;0.30;99.90;;;;;;5040507;28;20210;-50
2023/02/28 05:18:38;;;;;;;5.97;3.30;;;0.20;99.90;;;;;;5044232;28;20190;-54
2023/02/28 05:21:05;;;;;;;2.87;2.60;;;0.20;99.90;;;;;;5048598;28;20229;-49
2023/02/28 05:23:32;;;;;;;6.57;3.20;;;0.20;99.90;;;;;;5031152;28;20225;-54
2023/02/28 05:25:59;;;;;;;6.07;3.30;;;0.20;99.90;;;;;;5040160;28;20849;-52
2023/02/28 05:28:26;;;;;;;5.00;3.13;;;0.20;99.90;;;;;;5048940;28;20210;-53
2023/02/28 05:30:54;;;;;;;5.77;3.13;;;0.20;99.90;;;;;;5046483;28;20217;-51
2023/02/28 05:33:22;;;;;;;8.47;3.00;;;0.20;99.90;;;;;;5050639;28;20598;-52
2023/02/28 05:35:49;;;;;;;4.63;2.60;;;0.10;99.90;;;;;;5040407;28;20200;-53
2023/02/28 05:38:16;;;;;;;6.90;2.80;;;0.10;99.90;;;;;;5038658;28;20217;-55
2023/02/28 05:40:43;;;;;;;3.80;2.50;;;0.00;99.90;;;;;;5035114;28;20264;-50
2023/02/28 05:43:11;;;;;;;8.10;2.63;;;0.00;99.90;;;;;;5051022;28;20679;-56
2023/02/28 05:45:38;;;;;;;5.00;2.93;;;0.00;99.90;;;;;;5041674;28;20278;-51
2023/02/28 05:48:05;;;;;;;4.00;2.57;;;0.00;99.90;;;;;;5042617;28;20199;-50
2023/02/28 05:50:33;;;;;;;5.40;3.20;;;0.00;99.90;;;;;;5044483;28;20223;-51
2023/02/28 05:53:00;;;;;;;5.53;3.30;;;0.00;99.90;;;;;;5041010;28;20191;-57
2023/02/28 05:55:28;;;;;;;4.73;3.20;;;0.00;99.90;;;;;;5039865;28;20211;-53
2023/02/28 05:57:55;;;;;;;3.60;2.40;;;-0.10;99.90;;;;;;5057485;28;20925;-53
2023/02/28 06:00:23;;;;;;;4.03;3.17;;;-0.10;99.90;;;;;;5050531;28;20306;-51
2023/02/28 06:02:51;;;;;;;3.80;2.83;;;-0.20;99.90;;;;;;5043360;28;20214;-52
2023/02/28 06:05:19;;;;;;;4.60;3.03;;;-0.20;99.90;;;;;;5047002;28;20824;-53
2023/02/28 06:07:47;;;;;;;4.17;3.33;;;-0.30;99.90;;;;;;5050799;28;20793;-54
2023/02/28 06:10:14;;;;;;;6.33;3.17;;;-0.30;99.90;;;;;;5036921;28;20204;-54
2023/02/28 06:12:42;;;;;;;6.33;2.83;;;-0.30;99.90;;;;;;5049006;28;20201;-52
2023/02/28 06:15:13;;;;;;;5.57;3.50;;;-0.30;99.90;;;;;;5049525;28;20202;-54
2023/02/28 06:17:42;;;;;;;4.93;3.37;;;-0.30;99.90;;;;;;5046532;28;20236;-51
2023/02/28 06:20:12;;;;;;;5.87;2.77;;;-0.40;99.90;;;;;;5064875;28;20250;-50
2023/02/28 06:22:39;;;;;;;4.17;3.10;;;-0.50;99.90;;;;;;5051317;28;20220;-51
2023/02/28 06:25:08;;;;;;;4.17;3.03;;;-0.50;99.90;;;;;;5036861;28;20200;-52
2023/02/28 06:27:35;;;;;;;5.87;3.43;;;-0.50;99.90;;;;;;5047564;28;20210;-51
2023/02/28 06:30:03;;;;;;;3.40;3.10;;;-0.40;99.90;;;;;;5047552;28;20203;-53
2023/02/28 06:32:29;;;;;;;7.93;3.77;;;-0.40;99.90;;;;;;5045873;28;20248;-53
2023/02/28 06:34:57;;;;;;;6.07;3.43;;;-0.40;99.90;;;;;;5051850;28;20284;-55
2023/02/28 06:37:26;;;;;;;5.93;3.67;;;-0.40;99.90;;;;;;5049962;28;20206;-49
2023/02/28 06:39:56;;;;;;;6.53;3.77;;;-0.30;99.90;;;;;;5049182;28;20202;-53
2023/02/28 06:42:28;;;;;;;6.10;3.97;;;-0.30;99.90;;;;;;5041218;28;20226;-55
2023/02/28 06:44:56;;;;;;;4.13;3.43;;;-0.30;99.90;;;;;;5047051;28;20209;-53
2023/02/28 06:47:23;;;;;;;6.03;3.77;;;-0.30;99.90;;;;;;5044382;28;20597;-53
2023/02/28 06:49:50;;;;;;;5.23;3.67;;;-0.40;99.90;;;;;;5047931;28;20222;-53
2023/02/28 06:52:17;;;;;;;5.57;3.20;;;-0.40;99.90;;;;;;5061218;28;20229;-54
2023/02/28 06:54:43;;;;;;;5.57;4.30;;;-0.30;99.90;;;;;;5052852;28;20199;-54
2023/02/28 06:57:10;;;;;;;6.43;3.90;;;-0.30;99.90;;;;;;5044469;28;20212;-52
2023/02/28 06:59:38;;;;;;;9.17;3.67;;;-0.20;99.90;;;;;;5045528;28;20210;-48
2023/02/28 07:02:07;;;;;;;6.87;3.50;;;-0.20;99.90;;;;;;5053889;28;20597;-54
2023/02/28 07:04:34;;;;;;;5.67;3.50;;;-0.20;99.90;;;;;;5047374;28;20668;-52
2023/02/28 07:07:02;;;;;;;7.47;3.40;;;-0.10;99.90;;;;;;5052023;28;20198;-55
2023/02/28 07:09:30;;;;;;;5.80;3.50;;;-0.10;99.90;;;;;;5052000;28;20203;-52
2023/02/28 07:11:57;;;;;;;7.47;3.83;;;0.00;99.90;;;;;;5032325;28;20228;-53
2023/02/28 07:14:24;;;;;;;6.27;3.87;;;0.00;99.90;;;;;;5041825;28;20202;-52
2023/02/28 07:16:52;;;;;;;6.50;3.80;;;0.10;99.90;;;;;;5047520;28;20402;-52
2023/02/28 07:19:38;;;;;;;4.13;3.70;;;0.20;99.90;;;;;;5027497;28;20227;-53
2023/02/28 07:22:04;;;;;;;7.33;4.13;;;0.20;99.90;;;;;;5050390;28;20586;-51
2023/02/28 07:24:33;;;;;;;5.33;4.20;;;0.30;99.90;;;;;;5044134;28;20685;-54
2023/02/28 07:27:00;;;;;;;7.27;4.40;;;0.50;99.90;;;;;;5043922;28;20981;-55
2023/02/28 07:29:28;;;;;;;5.40;4.13;;;0.50;99.90;;;;;;5042298;28;20271;-53
2023/02/28 07:31:57;;;;;;;7.67;4.17;;;0.60;99.90;;;;;;5048421;28;20218;-53
2023/02/28 07:34:25;;;;;;;5.10;4.40;;;0.70;99.90;;;;;;5042911;28;20317;-54
2023/02/28 07:36:54;;;;;;;6.70;4.67;;;0.80;99.90;;;;;;5045694;28;20909;-55
2023/02/28 07:39:21;;;;;;;5.67;3.70;;;0.90;99.90;;;;;;5058324;28;20249;-54
2023/02/28 07:41:47;;;;;;;10.10;4.97;;;0.90;99.90;;;;;;5039732;28;20272;-54
2023/02/28 07:44:15;;;;;;;6.53;4.10;;;1.00;99.90;;;;;;5037474;28;20255;-53
2023/02/28 07:46:42;;;;;;;9.30;4.20;;;1.10;99.90;;;;;;5043494;28;20198;-54
2023/02/28 07:49:10;;;;;;;10.90;5.20;;;1.20;99.90;;;;;;5044405;28;20566;-51
2023/02/28 07:51:36;;;;;;;6.43;4.40;;;1.20;99.90;;;;;;5042009;28;20233;-52
2023/02/28 07:54:04;;;;;;;6.83;4.20;;;1.40;99.90;;;;;;5043805;28;20275;-53
2023/02/28 07:56:31;;;;;;;7.00;5.13;;;1.50;99.90;;;;;;5042501;28;20257;-52
2023/02/28 07:58:59;;;;;;;9.23;5.40;;;1.60;99.90;;;;;;5034148;28;20325;-54
2023/02/28 08:01:27;;;;;;;9.07;5.33;;;1.70;99.90;;;;;;5051805;28;20252;-53
2023/02/28 08:04:17;;;;;;;12.37;5.17;;;1.80;99.90;;;;;;5051112;28;20210;-54
2023/02/28 08:06:45;;;;;;;7.50;4.53;;;1.90;99.90;;;;;;5038974;28;20198;-51
2023/02/28 08:09:12;;;;;;;7.77;5.07;;;2.00;99.90;;;;;;5044061;28;20287;-53
2023/02/28 08:11:39;;;;;;;11.17;5.50;;;2.10;99.90;;;;;;5040214;28;20223;-53
2023/02/28 08:14:07;;;;;;;7.47;4.83;;;2.20;99.90;;;;;;5036150;28;20550;-52
2023/02/28 08:16:33;;;;;;;5.67;3.60;;;2.40;99.90;;;;;;5050423;28;20202;-54
2023/02/28 08:19:00;;;;;;;7.97;4.13;;;2.50;99.90;;;;;;5062112;28;20194;-53
2023/02/28 08:21:29;;;;;;;9.37;4.10;;;2.60;99.90;;;;;;5047306;28;20225;-55
2023/02/28 08:23:57;;;;;;;6.83;3.90;;;2.70;99.90;;;;;;5041579;28;20211;-53
2023/02/28 08:26:24;;;;;;;5.50;4.17;;;2.80;99.90;;;;;;5043781;28;20236;-52
2023/02/28 08:28:51;;;;;;;6.27;3.30;;;2.90;99.90;;;;;;5040976;28;20300;-53
2023/02/28 08:31:19;;;;;;;5.27;3.17;;;3.00;99.90;;;;;;5039054;28;20223;-54
2023/02/28 08:33:48;;;;;;;5.83;3.27;;;3.00;99.90;;;;;;5049244;28;20191;-56
2023/02/28 08:36:15;;;;;;;7.07;3.00;;;3.10;99.90;;;;;;5046102;28;20684;-54
2023/02/28 08:38:45;;;;;;;4.20;3.03;;;3.20;99.90;;;;;;5038215;28;20199;-55
2023/02/28 08:41:13;;;;;;;5.10;2.90;;;3.30;99.90;;;;;;5043752;28;20227;-53
2023/02/28 08:43:41;;;;;;;5.70;3.17;;;3.40;99.90;;;;;;5037820;28;20227;-49
2023/02/28 08:46:13;;;;;;;5.10;3.10;;;3.40;99.90;;;;;;5035211;28;20262;-55
2023/02/28 08:48:40;;;;;;;3.60;3.20;;;3.50;99.90;;;;;;5048814;28;20215;-53
2023/02/28 08:51:09;;;;;;;5.13;3.17;;;3.60;99.90;;;;;;5043597;28;20315;-55
2023/02/28 08:53:37;;;;;;;4.27;2.37;;;3.70;99.90;;;;;;5041804;28;20269;-53
2023/02/28 08:56:07;;;;;;;5.43;2.23;;;3.80;99.90;;;;;;5043351;28;20207;-55
2023/02/28 08:58:36;;;;;;;2.67;2.43;;;3.90;99.90;;;;;;5040858;28;20282;-53
2023/02/28 09:01:09;;;;;;;6.50;3.07;;;4.00;99.90;;;;;;5042604;28;20242;-54
2023/02/28 09:03:37;;;;;;;3.03;2.20;;;4.20;99.90;;;;;;5032043;28;20233;-51
2023/02/28 09:06:05;;;;;;;3.00;2.33;;;4.30;99.90;;;;;;5053353;28;20205;-51
2023/02/28 09:08:32;;;;;;;1.97;1.80;;;4.40;99.90;;;;;;5041876;28;20302;-52
2023/02/28 09:10:59;;;;;;;1.80;1.70;;;4.50;99.90;;;;;;5041964;28;20283;-56
2023/02/28 09:13:28;;;;;;;4.47;2.40;;;4.50;99.90;;;;;;5041960;28;20226;-54
2023/02/28 09:15:58;;;;;;;3.77;2.23;;;4.50;99.90;;;;;;5040509;28;20210;-52
2023/02/28 09:18:25;;;;;;;4.90;2.27;;;4.60;99.90;;;;;;5040779;28;20211;-51
2023/02/28 09:20:53;;;;;;;2.13;1.93;;;4.60;99.90;;;;;;5045764;28;20211;-53
2023/02/28 09:23:20;;;;;;;4.10;1.90;;;4.70;99.90;;;;;;5041492;28;20685;-55
2023/02/28 09:25:47;;;;;;;2.43;1.50;;;4.80;99.90;;;;;;5034977;28;20195;-53
2023/02/28 09:28:16;;;;;;;3.07;1.87;;;4.80;99.90;;;;;;5042006;28;20195;-56
2023/02/28 09:30:46;;;;;;;3.40;1.40;;;4.90;99.90;;;;;;5038760;28;20219;-56
2023/02/28 09:33:13;;;;;;;4.50;1.63;;;5.00;99.90;;;;;;5031193;28;20208;-55
2023/02/28 09:35:40;;;;;;;6.07;2.50;;;5.00;99.90;;;;;;5044323;28;20281;-55
2023/02/28 09:38:08;;;;;;;2.13;1.40;;;5.10;99.90;;;;;;5052464;28;20203;-55
2023/02/28 09:40:38;;;;;;;1.30;1.20;;;5.20;99.90;;;;;;5039885;28;20253;-51
2023/02/28 09:43:06;;;;;;;4.27;1.47;;;5.30;99.90;;;;;;5042230;28;20258;-54
2023/02/28 09:45:37;;;;;;;3.63;1.70;;;5.30;99.90;;;;;;5040713;28;20606;-52
2023/02/28 09:48:13;;;;;;;4.33;1.40;;;5.30;99.90;;;;;;5025708;28;24529;-54
2023/02/28 09:50:43;;;;;;;6.27;1.30;;;5.20;99.90;;;;;;5049248;28;20256;-52
2023/02/28 09:53:20;;;;;;;3.10;1.37;;;5.20;99.90;;;;;;5035704;28;20942;-55
2023/02/28 09:55:50;;;;;;;4.73;1.50;;;5.30;99.90;;;;;;5039828;28;20656;-52
2023/02/28 09:58:24;;;;;;;2.60;1.57;;;5.30;99.90;;;;;;5040309;28;20203;-51
2023/02/28 10:01:01;;;;;;;3.07;1.67;;;5.40;99.90;;;;;;5045138;28;20687;-55
2023/02/28 10:03:36;;;;;;;4.33;1.67;;;5.50;99.90;;;;;;5035855;28;20241;-55
2023/02/28 10:06:12;;;;;;;3.07;1.40;;;5.50;99.90;;;;;;5047035;28;20289;-54
2023/02/28 10:08:44;;;;;;;2.17;1.50;;;5.50;99.90;;;;;;5030220;28;20206;-53
2023/02/28 10:11:15;;;;;;;1.70;1.60;;;5.50;99.90;;;;;;5045275;28;20222;-56
2023/02/28 10:13:50;;;;;;;3.43;1.53;;;5.50;99.90;;;;;;5036738;28;20287;-54
2023/02/28 10:16:24;;;;;;;2.20;1.40;;;5.50;99.90;;;;;;5040845;28;20205;-55
2023/02/28 10:18:57;;;;;;;1.97;1.37;;;5.40;99.90;;;;;;5031615;28;20349;-59
2023/02/28 10:21:28;;;;;;;3.57;1.70;;;5.50;99.90;;;;;;5049901;28;20235;-53
2023/02/28 10:24:04;;;;;;;3.50;1.30;;;5.60;99.90;;;;;;5042966;28;20305;-52
2023/02/28 10:26:33;;;;;;;2.23;1.27;;;5.70;99.90;;;;;;5041269;28;20657;-53
2023/02/28 10:29:00;;;;;;;4.00;1.80;;;5.80;99.90;;;;;;5053401;28;20419;-59
2023/02/28 10:31:27;;;;;;;1.63;1.50;;;5.80;99.90;;;;;;5047550;28;20214;-53
2023/02/28 10:33:56;;;;;;;2.27;1.30;;;5.80;99.90;;;;;;5032896;28;20210;-53
2023/02/28 10:36:24;;;;;;;1.73;1.50;;;5.70;99.90;;;;;;5052745;28;20219;-58
2023/02/28 10:38:51;;;;;;;2.40;1.70;;;5.70;99.90;;;;;;5032977;28;20211;-56
2023/02/28 10:41:28;;;;;;;2.70;1.60;;;5.70;99.90;;;;;;5051273;28;20257;-59
2023/02/28 10:44:15;;;;;;;2.90;1.20;;;5.70;99.90;;;;;;5054376;28;20211;-59
2023/02/28 10:46:43;;;;;;;1.87;1.30;;;5.70;99.90;;;;;;5047195;28;20206;-52
2023/02/28 10:49:17;;;;;;;1.30;1.20;;;5.80;99.90;;;;;;5048172;28;20203;-56
2023/02/28 10:51:45;;;;;;;1.97;1.30;;;5.90;99.90;;;;;;5032208;28;20241;-55
2023/02/28 10:54:17;;;;;;;2.57;1.20;;;5.90;99.90;;;;;;5055826;28;20202;-58
2023/02/28 10:56:44;;;;;;;2.30;1.30;;;5.90;99.90;;;;;;5036217;28;20337;-52
2023/02/28 10:59:28;;;;;;;1.67;1.57;;;6.00;99.90;;;;;;5055432;28;20821;-58
2023/02/28 11:01:55;;;;;;;1.30;1.20;;;6.10;99.90;;;;;;5037955;28;20890;-54
2023/02/28 11:04:37;;;;;;;2.00;1.30;;;6.10;99.90;;;;;;5054257;28;20202;-54
2023/02/28 11:07:07;;;;;;;3.67;1.33;;;6.10;99.90;;;;;;5039813;28;20815;-52
2023/02/28 11:09:36;;;;;;;2.27;1.10;;;6.10;99.90;;;;;;5050336;28;20226;-50
2023/02/28 11:12:05;;;;;;;2.53;1.50;;;6.10;99.90;;;;;;5039776;28;20234;-54
2023/02/28 11:14:37;;;;;;;6.50;3.70;;;6.20;99.90;;;;;;5049395;28;20199;-53
2023/02/28 11:17:16;;;;;;;2.73;1.60;;;6.40;99.90;;;;;;5042968;28;20732;-54
2023/02/28 11:19:49;;;;;;;1.40;1.10;;;6.40;99.90;;;;;;5046962;28;20694;-52
2023/02/28 11:22:20;;;;;;;2.40;1.20;;;6.40;99.90;;;;;;5037257;28;20261;-54
2023/02/28 11:24:50;;;;;;;1.73;1.20;;;6.50;99.90;;;;;;5043864;28;20231;-58
2023/02/28 11:27:42;;;;;;;2.20;1.20;;;6.50;99.90;;;;;;5048753;28;20203;-57
2023/02/28 11:30:28;;;;;;;3.57;1.50;;;6.50;99.90;;;;;;5043866;28;20199;-49
2023/02/28 11:32:54;;;;;;;1.63;1.30;;;6.50;99.90;;;;;;5042432;28;20207;-54
2023/02/28 11:35:27;;;;;;;2.50;1.30;;;6.50;99.90;;;;;;5047353;28;21218;-48
2023/02/28 11:37:54;;;;;;;1.40;1.13;;;6.60;99.90;;;;;;5039626;28;20215;-53
2023/02/28 11:40:30;;;;;;;1.80;1.37;;;6.60;99.90;;;;;;5055523;28;20201;-52
2023/02/28 11:43:11;;;;;;;1.50;1.30;;;6.60;99.90;;;;;;5044413;28;20238;-54
2023/02/28 11:46:03;;;;;;;1.07;1.00;;;6.70;99.90;;;;;;5048055;28;20305;-51
2023/02/28 11:48:38;;;;;;;2.10;1.20;;;6.80;99.90;;;;;;5034104;28;20282;-55
2023/02/28 11:51:16;;;;;;;3.47;1.10;;;6.90;99.90;;;;;;5049865;28;20234;-53
2023/02/28 11:53:57;;;;;;;2.27;1.40;;;6.90;99.90;;;;;;5047718;28;20202;-57
2023/02/28 11:56:32;;;;;;;2.20;1.50;;;7.00;99.90;;;;;;5043167;28;20204;-51
2023/02/28 11:59:14;;;;;;;1.93;1.13;;;7.00;99.90;;;;;;5039601;28;20203;-52
2023/02/28 12:02:00;;;;;;;2.23;1.40;;;7.00;99.90;;;;;;5046187;28;20234;-56
2023/02/28 12:04:36;;;;;;;1.93;1.40;;;7.00;99.90;;;;;;5039328;28;20226;-54
2023/02/28 12:07:16;;;;;;;3.77;2.63;;;6.90;99.40;;;;;;5049868;28;20213;-53
2023/02/28 12:09:50;;;;;;;1.17;1.07;;;6.90;99.70;;;;;;5043069;28;20195;-55
2023/02/28 12:12:28;;;;;;;1.93;1.30;;;7.20;99.90;;;;;;5049291;28;20219;-55
2023/02/28 12:15:26;;;;;;;2.50;1.20;;;7.20;99.10;;;;;;5041445;28;20209;-58
2023/02/28 12:18:08;;;;;;;2.83;1.27;;;7.20;97.00;;;;;;5040026;28;20719;-55
2023/02/28 12:20:41;;;;;;;4.80;1.30;;;7.20;98.10;;;;;;5050176;28;20323;-52
2023/02/28 12:23:26;;;;;;;1.70;1.13;;;7.10;97.80;;;;;;5048053;28;20211;-51
2023/02/28 12:26:16;;;;;;;2.17;1.40;;;7.10;97.90;;;;;;5051263;28;20199;-55
2023/02/28 12:28:47;;;;;;;2.40;1.30;;;7.20;98.10;;;;;;5046706;28;20191;-50
2023/02/28 12:31:18;;;;;;;2.30;1.37;;;7.20;97.50;;;;;;5042713;28;20720;-51
2023/02/28 12:33:50;;;;;;;2.73;1.20;;;7.10;96.90;;;;;;5037497;28;20356;-54
2023/02/28 12:36:21;;;;;;;1.80;1.30;;;7.10;97.70;;;;;;5053686;28;20285;-50
2023/02/28 12:38:54;;;;;;;2.13;1.30;;;7.20;97.90;;;;;;5035810;28;22260;-51
2023/02/28 12:41:28;;;;;;;1.47;1.20;;;7.30;97.80;;;;;;5033074;28;20221;-52
2023/02/28 12:44:01;;;;;;;1.77;1.57;;;7.30;97.60;;;;;;5049231;28;20206;-52
2023/02/28 12:46:33;;;;;;;1.87;1.50;;;7.30;97.70;;;;;;5037406;28;20397;-48
2023/02/28 12:49:05;;;;;;;2.37;1.10;;;7.40;97.70;;;;;;5042026;28;20195;-54
2023/02/28 12:51:33;;;;;;;2.63;1.43;;;7.50;96.90;;;;;;5037773;28;20869;-53
2023/02/28 12:54:10;;;;;;;3.43;1.50;;;7.50;96.90;;;;;;5046134;28;20257;-53
2023/02/28 12:56:46;;;;;;;1.43;1.30;;;7.60;96.10;;;;;;5028143;28;20738;-51
2023/02/28 12:59:23;;;;;;;2.90;1.50;;;7.70;95.70;;;;;;5052628;28;20628;-54
2023/02/28 13:02:19;;;;;;;1.87;1.20;;;7.80;96.00;;;;;;5038313;28;20264;-53
2023/02/28 13:05:08;;;;;;;1.57;1.40;;;7.90;93.60;;;;;;5036108;28;20285;-50
2023/02/28 13:08:14;;;;;;;2.20;1.30;;;7.90;98.70;;;;;;5043612;28;20203;-52
2023/02/28 13:10:45;;;;;;;3.47;1.40;;;7.90;96.00;;;;;;5004065;28;20234;-54
2023/02/28 13:13:21;;;;;;;1.63;1.13;;;8.00;96.70;;;;;;5050134;28;20199;-54
2023/02/28 13:16:04;;;;;;;1.40;1.30;;;8.00;93.80;;;;;;5047474;28;20191;-54
2023/02/28 13:18:37;;;;;;;2.30;1.73;;;8.00;93.40;;;;;;5047057;28;20560;-53